This is the latest recevied weather packets stored in our database for station/object TA2LKM-11. If no packets are shown the sender has not sent any weather packets the latest 10 day(s).
| Time | Temp. | Humidity | Pressure | Rain* | Wind** | Luminosity | Snow |
|---|---|---|---|---|---|---|---|
| 1788675332 | 42.78° C | 21% | 1017.7 hPa | - | - | - | - |
| 1788674431 | 37.78° C | 26% | 1017.5 hPa | - | - | - | - |
| 1788674343 | 38.33° C | 26% | 1017.6 hPa | - | - | - | - |
| 1788673442 | 41.67° C | 22% | 1017.7 hPa | - | - | - | - |
| 1788672541 | 41.11° C | 21% | 1017.8 hPa | - | - | - | - |
| 1788671641 | 38.89° C | 24% | 1017.7 hPa | - | - | - | - |
| 1788670740 | 33.33° C | 31% | 1017.5 hPa | - | - | - | - |
| 1788669839 | 28.33° C | 36% | 1017.1 hPa | - | - | - | - |
| 1788668938 | 26.11° C | 40% | 1016.8 hPa | - | - | - | - |
| 1788668038 | 25.56° C | 39% | 1016.7 hPa | - | - | - | - |
| 1788667137 | 19.44° C | 52% | 1016.5 hPa | - | - | - | - |
| 1788666236 | 18.89° C | 52% | 1016.3 hPa | - | - | - | - |
| 1788665335 | 18.89° C | 52% | 1016.3 hPa | - | - | - | - |
| 1788664434 | 18.33° C | 53% | 1016.2 hPa | - | - | - | - |
| 1788664400 | 18.33° C | 53% | 1016.2 hPa | - | - | - | - |
| 1788663499 | 18.89° C | 54% | 1016.3 hPa | - | - | - | - |
| 1788662598 | 18.33° C | 55% | 1016.1 hPa | - | - | - | - |
| 1788661698 | 18.33° C | 55% | 1016.1 hPa | - | - | - | - |
| 1788660797 | 19.44° C | 51% | 1016.1 hPa | - | - | - | - |
| 1788659897 | 18.89° C | 53% | 1015.9 hPa | - | - | - | - |
| 1788658819 | 20° C | 49% | 1015.8 hPa | - | - | - | - |
| 1788657916 | 20° C | 49% | 1015.8 hPa | - | - | - | - |
| 1788657015 | 20° C | 52% | 1015.8 hPa | - | - | - | - |
| 1788656115 | 20° C | 49% | 1015.7 hPa | - | - | - | - |
| 1788655213 | 20.56° C | 50% | 1015.7 hPa | - | - | - | - |
* Rain since midnight (hover to see other rain measurements)
** Current wind speed in m/s (hover to see current wind gust speed)